createdAt,value
2018-08-11T00:00:24.242Z,17.15
2018-08-11T00:02:51.827Z,17.25
2018-08-11T00:05:19.138Z,17.29
2018-08-11T00:07:46.990Z,17.36
2018-08-11T00:10:14.306Z,17.41
2018-08-11T00:12:41.694Z,17.48
2018-08-11T00:15:11.897Z,17.53
2018-08-11T00:20:38.262Z,17.52
2018-08-11T00:23:06.080Z,17.44
2018-08-11T00:25:33.334Z,17.41
2018-08-11T00:28:00.643Z,17.33
2018-08-11T00:30:27.946Z,17.34
2018-08-11T00:32:55.263Z,17.31
2018-08-11T00:35:22.531Z,17.34
2018-08-11T00:37:49.821Z,17.35
2018-08-11T00:40:19.046Z,17.40
2018-08-11T00:42:47.431Z,17.46
2018-08-11T00:45:15.459Z,17.55
2018-08-11T00:47:42.911Z,17.62
2018-08-11T00:50:17.499Z,17.70
2018-08-11T00:52:44.884Z,17.73
2018-08-11T00:55:13.083Z,17.76
2018-08-11T00:57:40.490Z,17.81
2018-08-11T01:00:11.711Z,17.86
2018-08-11T01:02:39.570Z,17.98
2018-08-11T01:05:08.763Z,18.04
2018-08-11T01:07:36.331Z,18.06
2018-08-11T01:10:04.235Z,18.05
2018-08-11T01:12:31.493Z,18.09
2018-08-11T01:14:58.764Z,18.10
2018-08-11T01:17:26.043Z,18.04
2018-08-11T01:19:53.302Z,17.99
2018-08-11T01:22:20.652Z,17.89
2018-08-11T01:24:47.891Z,17.85
2018-08-11T01:27:15.169Z,17.85
2018-08-11T01:29:42.442Z,17.89
2018-08-11T01:32:09.776Z,18.00
2018-08-11T01:34:37.100Z,18.01
2018-08-11T01:37:04.369Z,18.07
2018-08-11T01:39:31.649Z,18.08
2018-08-11T01:41:58.919Z,18.12
2018-08-11T01:44:26.251Z,18.17
2018-08-11T01:46:53.548Z,18.17
2018-08-11T01:49:20.860Z,18.19
2018-08-11T01:51:48.181Z,18.15
2018-08-11T01:54:15.460Z,18.10
2018-08-11T01:56:42.754Z,18.00
2018-08-11T01:59:09.994Z,17.91
2018-08-11T02:01:37.243Z,17.87
2018-08-11T02:04:06.164Z,17.89
2018-08-11T02:06:33.445Z,17.83
2018-08-11T02:09:00.724Z,17.84
2018-08-11T02:11:27.970Z,17.84
2018-08-11T02:13:55.237Z,17.86
2018-08-11T02:16:22.488Z,17.84
2018-08-11T02:18:49.751Z,17.84
2018-08-11T02:21:17.036Z,17.81
2018-08-11T02:23:44.350Z,17.80
2018-08-11T02:26:11.612Z,17.78
2018-08-11T02:28:38.868Z,17.74
2018-08-11T02:31:06.519Z,17.71
2018-08-11T02:33:33.836Z,17.64
2018-08-11T02:36:01.135Z,17.54
2018-08-11T02:38:28.460Z,17.51
2018-08-11T02:40:55.717Z,17.50
2018-08-11T02:43:23.035Z,17.48
2018-08-11T02:45:50.288Z,17.41
2018-08-11T02:48:17.622Z,17.35
2018-08-11T02:50:44.912Z,17.28
2018-08-11T02:53:12.213Z,17.22
2018-08-11T02:55:39.462Z,17.23
2018-08-11T02:58:06.783Z,17.16
2018-08-11T03:00:34.041Z,17.07
2018-08-11T03:03:01.464Z,16.99
2018-08-11T03:05:28.747Z,16.86
2018-08-11T03:07:55.987Z,16.83
2018-08-11T03:10:23.404Z,16.74
2018-08-11T03:12:50.685Z,16.74
2018-08-11T03:15:18.071Z,16.76
2018-08-11T03:17:45.361Z,16.75
2018-08-11T03:20:14.883Z,16.72
2018-08-11T03:22:43.864Z,16.74
2018-08-11T03:25:11.410Z,16.82
2018-08-11T03:27:38.970Z,16.90
2018-08-11T03:30:06.951Z,16.85
2018-08-11T03:32:34.270Z,16.77
2018-08-11T03:35:08.218Z,16.71
2018-08-11T03:37:35.513Z,16.60
2018-08-11T03:40:02.875Z,16.52
2018-08-11T03:42:30.190Z,16.43
2018-08-11T03:44:57.542Z,16.36
2018-08-11T03:47:25.367Z,16.27
2018-08-11T03:49:52.777Z,16.17
2018-08-11T03:52:20.282Z,16.17
2018-08-11T03:54:48.610Z,16.17
2018-08-11T03:57:16.681Z,16.20
2018-08-11T03:59:44.159Z,16.26
2018-08-11T04:02:11.539Z,16.35
2018-08-11T04:04:38.981Z,16.43
2018-08-11T04:07:06.610Z,16.51
2018-08-11T04:09:33.971Z,16.60
2018-08-11T04:12:01.388Z,16.66
2018-08-11T04:14:28.799Z,16.79
2018-08-11T04:16:56.428Z,16.85
2018-08-11T04:19:23.936Z,16.92
2018-08-11T04:21:51.275Z,17.00
2018-08-11T04:24:18.659Z,17.03
2018-08-11T04:26:47.181Z,17.05
2018-08-11T04:29:14.568Z,17.09
2018-08-11T04:31:41.975Z,17.08
2018-08-11T04:34:09.414Z,17.08
2018-08-11T04:36:36.768Z,17.08
2018-08-11T04:39:06.766Z,17.06
2018-08-11T04:41:34.202Z,17.09
2018-08-11T04:44:02.394Z,17.12
2018-08-11T04:46:29.833Z,17.18
2018-08-11T04:48:57.241Z,17.20
2018-08-11T04:51:24.660Z,17.27
2018-08-11T04:53:53.050Z,17.36
2018-08-11T04:56:20.441Z,17.39
2018-08-11T04:58:47.875Z,17.45
2018-08-11T05:01:15.707Z,17.49
2018-08-11T05:03:43.039Z,17.55
2018-08-11T05:06:10.480Z,17.60
2018-08-11T05:08:38.536Z,17.65
2018-08-11T05:11:05.927Z,17.70
2018-08-11T05:13:33.406Z,17.79
2018-08-11T05:16:00.923Z,17.88
2018-08-11T05:18:28.294Z,17.90
2018-08-11T05:20:55.814Z,17.92
2018-08-11T05:23:23.759Z,17.97
2018-08-11T05:25:51.170Z,17.96
2018-08-11T05:28:19.628Z,18.02
2018-08-11T05:30:47.035Z,18.05
2018-08-11T05:33:14.406Z,18.10
2018-08-11T05:35:42.387Z,18.13
2018-08-11T05:38:10.345Z,18.23
2018-08-11T05:40:37.739Z,18.32
2018-08-11T05:43:05.145Z,18.42
2018-08-11T05:45:32.709Z,18.48
2018-08-11T05:48:00.089Z,18.69
2018-08-11T05:50:27.478Z,18.80
2018-08-11T05:52:54.947Z,18.87
2018-08-11T05:55:23.210Z,18.93
2018-08-11T05:58:01.999Z,18.94
2018-08-11T06:00:29.593Z,19.08
2018-08-11T06:02:56.978Z,19.09
2018-08-11T06:05:24.496Z,19.16
2018-08-11T06:07:51.867Z,19.18
2018-08-11T06:10:19.326Z,19.26
2018-08-11T06:12:46.679Z,19.39
2018-08-11T06:15:14.097Z,19.39
2018-08-11T06:17:42.236Z,19.45
2018-08-11T06:20:10.083Z,19.48
2018-08-11T06:22:38.407Z,19.57
2018-08-11T06:25:07.688Z,19.68
2018-08-11T06:27:35.075Z,19.67
2018-08-11T06:30:13.099Z,19.82
2018-08-11T06:32:50.554Z,19.84
2018-08-11T06:35:17.937Z,19.93
2018-08-11T06:37:45.351Z,19.88
2018-08-11T06:40:21.936Z,19.96
2018-08-11T06:42:49.946Z,20.15
2018-08-11T06:45:18.118Z,20.29
2018-08-11T06:47:45.640Z,20.28
2018-08-11T06:50:13.090Z,20.38
2018-08-11T06:52:40.486Z,20.49
2018-08-11T06:55:07.931Z,20.46
2018-08-11T06:57:35.262Z,20.45
2018-08-11T07:00:02.614Z,20.58
2018-08-11T07:02:30.068Z,20.55
2018-08-11T07:04:57.422Z,20.64
2018-08-11T07:07:24.840Z,20.71
2018-08-11T07:09:52.230Z,20.88
2018-08-11T07:12:20.184Z,20.85
2018-08-11T07:14:47.621Z,20.97
2018-08-11T07:17:15.021Z,21.00
2018-08-11T07:19:44.976Z,20.98
2018-08-11T07:22:12.342Z,20.91
2018-08-11T07:24:39.651Z,21.19
2018-08-11T07:27:07.424Z,21.59
2018-08-11T07:29:34.796Z,21.89
2018-08-11T07:32:02.221Z,22.12
2018-08-11T07:34:29.592Z,22.23
2018-08-11T07:36:57.850Z,22.76
2018-08-11T07:39:25.248Z,23.24
2018-08-11T07:41:52.623Z,23.56
2018-08-11T07:44:20.727Z,23.61
2018-08-11T07:46:49.455Z,23.55
2018-08-11T07:49:16.832Z,23.66
2018-08-11T07:51:44.248Z,23.82
2018-08-11T07:54:11.607Z,23.78
2018-08-11T07:56:39.019Z,24.05
2018-08-11T07:59:06.535Z,24.70
2018-08-11T08:01:34.221Z,24.94
2018-08-11T08:04:01.633Z,25.49
2018-08-11T08:06:29.150Z,25.94
2018-08-11T08:08:56.527Z,26.14
2018-08-11T08:11:23.946Z,25.99
2018-08-11T08:13:53.339Z,25.73
2018-08-11T08:16:20.795Z,25.75
2018-08-11T08:18:48.451Z,24.03
2018-08-11T08:21:16.403Z,23.30
2018-08-11T08:23:44.131Z,22.44
2018-08-11T08:26:12.354Z,21.85
2018-08-11T08:28:39.862Z,21.89
2018-08-11T08:31:07.258Z,22.02
2018-08-11T08:33:36.005Z,22.20
2018-08-11T08:36:05.380Z,21.96
2018-08-11T08:38:48.314Z,21.92
2018-08-11T08:41:15.821Z,21.85
2018-08-11T08:43:43.239Z,22.07
2018-08-11T08:46:10.678Z,23.18
2018-08-11T08:48:38.564Z,24.07
2018-08-11T08:51:06.130Z,24.36
2018-08-11T08:53:33.621Z,24.18
2018-08-11T08:56:01.074Z,24.47
2018-08-11T08:58:28.840Z,24.38
2018-08-11T09:00:56.296Z,24.03
2018-08-11T09:03:23.883Z,24.18
2018-08-11T09:05:51.896Z,24.27
2018-08-11T09:08:19.504Z,23.81
2018-08-11T09:10:46.916Z,23.75
2018-08-11T09:13:14.402Z,23.53
2018-08-11T09:15:41.928Z,24.19
2018-08-11T09:18:10.471Z,24.80
2018-08-11T09:20:37.827Z,25.80
2018-08-11T09:23:05.467Z,25.81
2018-08-11T09:25:33.167Z,25.52
2018-08-11T09:28:00.657Z,25.26
2018-08-11T09:30:28.911Z,25.63
2018-08-11T09:32:56.430Z,26.45
2018-08-11T09:35:24.203Z,26.15
2018-08-11T09:37:52.272Z,26.22
2018-08-11T09:40:19.687Z,26.49
2018-08-11T09:42:47.274Z,25.69
2018-08-11T09:45:14.726Z,24.56
2018-08-11T09:47:42.134Z,23.70
2018-08-11T09:50:09.599Z,22.99
2018-08-11T09:52:36.993Z,23.01
2018-08-11T09:55:04.374Z,22.80
2018-08-11T09:57:31.805Z,22.79
2018-08-11T09:59:59.384Z,22.23
2018-08-11T10:02:26.789Z,22.03
2018-08-11T10:04:54.078Z,22.75
2018-08-11T10:07:22.412Z,23.70
2018-08-11T10:09:55.307Z,24.59
2018-08-11T10:12:27.256Z,25.13
2018-08-11T10:14:54.970Z,25.49
2018-08-11T10:17:30.375Z,25.57
2018-08-11T10:19:59.197Z,26.10
2018-08-11T10:22:27.168Z,25.98
2018-08-11T10:24:55.448Z,26.27
2018-08-11T10:27:23.596Z,26.60
2018-08-11T10:29:51.619Z,26.25
2018-08-11T10:32:19.026Z,25.54
2018-08-11T10:34:46.408Z,25.23
2018-08-11T10:37:13.722Z,25.05
2018-08-11T10:39:42.899Z,24.00
2018-08-11T10:42:10.182Z,22.77
2018-08-11T10:44:37.585Z,23.42
2018-08-11T10:47:05.855Z,24.48
2018-08-11T10:49:33.429Z,25.32
2018-08-11T10:52:00.780Z,24.53
2018-08-11T10:54:29.022Z,25.18
2018-08-11T10:56:56.377Z,25.69
2018-08-11T10:59:23.822Z,25.70
2018-08-11T11:01:51.802Z,25.74
2018-08-11T11:04:19.376Z,26.40
2018-08-11T11:06:48.956Z,26.82
2018-08-11T11:09:16.478Z,26.67
2018-08-11T11:11:43.897Z,26.43
2018-08-11T11:14:11.393Z,26.16
2018-08-11T11:16:39.101Z,26.63
2018-08-11T11:19:06.818Z,27.19
2018-08-11T11:21:34.293Z,25.98
2018-08-11T11:24:01.551Z,25.41
2018-08-11T11:26:28.794Z,25.51
2018-08-11T11:28:56.063Z,26.38
2018-08-11T11:31:23.343Z,27.00
2018-08-11T11:33:50.643Z,27.23
2018-08-11T11:36:17.921Z,27.04
2018-08-11T11:38:45.240Z,26.96
2018-08-11T11:41:12.469Z,25.75
2018-08-11T11:43:39.916Z,25.95
2018-08-11T11:46:07.330Z,25.94
2018-08-11T11:48:34.789Z,26.99
2018-08-11T11:51:02.274Z,26.61
2018-08-11T11:53:29.666Z,26.68
2018-08-11T11:55:57.096Z,26.97
2018-08-11T11:58:26.435Z,27.51
2018-08-11T12:00:56.201Z,27.48
2018-08-11T12:03:24.542Z,27.89
2018-08-11T12:05:53.904Z,27.88
2018-08-11T12:08:21.452Z,28.13
2018-08-11T12:10:50.309Z,28.26
2018-08-11T12:13:17.821Z,27.47
2018-08-11T12:15:45.154Z,27.05
2018-08-11T12:18:12.634Z,26.34
2018-08-11T12:20:40.103Z,26.56
2018-08-11T12:23:10.294Z,27.16
2018-08-11T12:25:37.746Z,27.73
2018-08-11T12:28:05.604Z,27.19
2018-08-11T12:30:33.034Z,26.77
2018-08-11T12:33:00.397Z,26.74
2018-08-11T12:35:27.908Z,26.87
2018-08-11T12:37:55.336Z,27.50
2018-08-11T12:40:22.718Z,26.62
2018-08-11T12:42:50.233Z,27.12
2018-08-11T12:45:17.676Z,27.35
2018-08-11T12:47:45.319Z,27.26
2018-08-11T12:50:12.745Z,27.56
2018-08-11T12:52:40.150Z,27.97
2018-08-11T12:55:07.715Z,28.44
2018-08-11T12:57:35.083Z,28.83
2018-08-11T13:00:02.617Z,28.11
2018-08-11T13:02:30.000Z,28.26
2018-08-11T13:04:57.404Z,28.43
2018-08-11T13:07:24.891Z,28.35
2018-08-11T13:09:52.354Z,27.93
2018-08-11T13:12:20.746Z,27.37
2018-08-11T13:14:48.915Z,26.66
2018-08-11T13:17:16.563Z,26.17
2018-08-11T13:19:43.947Z,25.85
2018-08-11T13:22:14.306Z,26.41
2018-08-11T13:24:41.728Z,27.10
2018-08-11T13:27:09.748Z,27.40
2018-08-11T13:29:39.668Z,27.21
2018-08-11T13:32:07.288Z,26.72
2018-08-11T13:34:34.665Z,26.86
2018-08-11T13:37:02.090Z,26.70
2018-08-11T13:39:29.517Z,26.21
2018-08-11T13:41:57.068Z,26.39
2018-08-11T13:44:24.950Z,26.35
2018-08-11T13:46:52.353Z,25.62
2018-08-11T13:49:19.853Z,25.06
2018-08-11T13:51:47.266Z,24.84
2018-08-11T13:54:15.711Z,25.06
2018-08-11T13:56:43.346Z,26.06
2018-08-11T13:59:11.653Z,26.62
2018-08-11T14:01:39.251Z,26.49
2018-08-11T14:04:06.706Z,25.68
2018-08-11T14:06:34.170Z,25.11
2018-08-11T14:09:01.563Z,25.70
2018-08-11T14:11:29.181Z,25.39
2018-08-11T14:13:56.603Z,24.90
2018-08-11T14:16:24.143Z,25.07
2018-08-11T14:18:52.493Z,25.46
2018-08-11T14:21:19.932Z,25.69
2018-08-11T14:23:47.297Z,25.75
2018-08-11T14:26:14.730Z,25.38
2018-08-11T14:28:42.287Z,25.74
2018-08-11T14:31:09.895Z,25.57
2018-08-11T14:33:37.326Z,25.16
2018-08-11T14:36:04.848Z,25.52
2018-08-11T14:38:32.307Z,25.46
2018-08-11T14:40:59.748Z,24.92
2018-08-11T14:43:27.242Z,24.97
2018-08-11T14:45:54.642Z,24.89
2018-08-11T14:48:22.198Z,25.15
2018-08-11T14:50:49.709Z,25.40
2018-08-11T14:53:18.357Z,25.41
2018-08-11T14:55:45.819Z,25.24
2018-08-11T14:58:13.209Z,25.21
2018-08-11T15:00:40.615Z,25.38
2018-08-11T15:03:08.329Z,25.14
2018-08-11T15:05:36.138Z,24.97
2018-08-11T15:08:03.560Z,24.92
2018-08-11T15:10:31.152Z,24.57
2018-08-11T15:12:58.609Z,24.51
2018-08-11T15:15:26.032Z,24.84
2018-08-11T15:17:53.506Z,24.97
2018-08-11T15:20:20.954Z,24.86
2018-08-11T15:22:48.444Z,24.70
2018-08-11T15:25:16.483Z,24.30
2018-08-11T15:27:44.830Z,24.26
2018-08-11T15:30:12.452Z,24.59
2018-08-11T15:32:40.343Z,24.82
2018-08-11T15:35:09.691Z,24.74
2018-08-11T15:37:37.125Z,24.64
2018-08-11T15:40:06.259Z,24.08
2018-08-11T15:42:33.977Z,24.16
2018-08-11T15:45:01.493Z,24.38
2018-08-11T15:47:29.022Z,24.44
2018-08-11T15:49:56.565Z,24.48
2018-08-11T15:52:25.440Z,24.66
2018-08-11T15:54:53.587Z,24.60
2018-08-11T15:57:21.894Z,24.42
2018-08-11T15:59:49.514Z,24.42
2018-08-11T16:02:17.031Z,24.33
2018-08-11T16:04:44.396Z,24.36
2018-08-11T16:07:12.490Z,24.38
2018-08-11T16:09:40.146Z,24.39
2018-08-11T16:12:07.771Z,24.49
2018-08-11T16:14:35.162Z,24.40
2018-08-11T16:17:02.555Z,24.45
2018-08-11T16:19:29.931Z,24.55
2018-08-11T16:22:04.985Z,24.50
2018-08-11T16:24:32.413Z,24.38
2018-08-11T16:26:59.846Z,24.08
2018-08-11T16:29:27.468Z,24.06
2018-08-11T16:31:55.123Z,23.92
2018-08-11T16:34:22.529Z,23.87
2018-08-11T16:36:50.039Z,23.82
2018-08-11T16:39:17.618Z,23.60
2018-08-11T16:41:45.055Z,23.50
2018-08-11T16:44:12.473Z,23.50
2018-08-11T16:46:49.394Z,23.44
2018-08-11T16:49:27.409Z,23.52
2018-08-11T16:52:04.917Z,23.38
2018-08-11T16:54:42.452Z,23.43
2018-08-11T16:57:20.127Z,23.35
2018-08-11T16:59:47.572Z,23.31
2018-08-11T17:02:15.063Z,23.20
2018-08-11T17:04:44.464Z,23.03
2018-08-11T17:07:15.249Z,22.92
2018-08-11T17:09:46.959Z,22.73
2018-08-11T17:12:16.554Z,22.70
2018-08-11T17:14:45.372Z,22.71
2018-08-11T17:17:14.125Z,22.78
2018-08-11T17:19:44.244Z,22.84
2018-08-11T17:22:14.047Z,22.78
2018-08-11T17:24:41.996Z,22.72
2018-08-11T17:27:11.772Z,22.63
2018-08-11T17:29:40.579Z,22.64
2018-08-11T17:32:10.045Z,22.61
2018-08-11T17:34:39.473Z,22.61
2018-08-11T17:37:08.315Z,22.41
2018-08-11T17:39:37.013Z,22.25
2018-08-11T17:42:11.031Z,22.15
2018-08-11T17:44:41.966Z,22.07
2018-08-11T17:47:11.654Z,22.00
2018-08-11T17:49:51.600Z,21.98
2018-08-11T17:52:33.496Z,21.94
2018-08-11T17:55:02.286Z,21.90
2018-08-11T17:57:31.510Z,21.90
2018-08-11T18:00:00.100Z,21.75
2018-08-11T18:02:28.716Z,21.61
2018-08-11T18:04:59.764Z,21.60
2018-08-11T18:07:28.025Z,21.57
2018-08-11T18:09:57.588Z,21.50
2018-08-11T18:12:25.591Z,21.47
2018-08-11T18:14:54.704Z,21.39
2018-08-11T18:17:23.826Z,21.41
2018-08-11T18:19:53.154Z,21.29
2018-08-11T18:22:21.213Z,21.24
2018-08-11T18:24:50.469Z,21.19
2018-08-11T18:27:18.773Z,21.09
2018-08-11T18:29:46.877Z,21.09
2018-08-11T18:32:16.280Z,21.03
2018-08-11T18:34:45.207Z,20.96
2018-08-11T18:37:14.644Z,20.90
2018-08-11T18:39:42.638Z,20.80
2018-08-11T18:42:13.094Z,20.77
2018-08-11T18:44:41.144Z,20.71
2018-08-11T18:47:10.928Z,20.64
2018-08-11T18:49:42.240Z,20.61
2018-08-11T18:52:11.819Z,20.52
2018-08-11T18:54:39.470Z,20.36
2018-08-11T18:57:06.970Z,20.23
2018-08-11T18:59:34.480Z,20.01
2018-08-11T19:02:01.870Z,19.81
2018-08-11T19:04:29.277Z,19.71
2018-08-11T19:06:56.679Z,19.56
2018-08-11T19:09:24.095Z,19.43
2018-08-11T19:11:51.410Z,19.30
2018-08-11T19:14:20.370Z,19.21
2018-08-11T19:16:48.035Z,19.12
2018-08-11T19:19:15.524Z,19.08
2018-08-11T19:21:42.950Z,19.02
2018-08-11T19:24:10.280Z,18.96
2018-08-11T19:26:39.135Z,18.90
2018-08-11T19:29:06.555Z,18.81
2018-08-11T19:31:33.880Z,18.72
2018-08-11T19:34:01.349Z,18.62
2018-08-11T19:36:28.853Z,18.56
2018-08-11T19:38:56.224Z,18.43
2018-08-11T19:41:24.266Z,18.17
2018-08-11T19:43:51.763Z,17.89
2018-08-11T19:46:19.216Z,17.80
2018-08-11T19:48:47.192Z,17.58
2018-08-11T19:51:14.555Z,17.56
2018-08-11T19:53:41.887Z,17.53
2018-08-11T19:56:09.811Z,17.41
2018-08-11T19:58:37.168Z,17.36
2018-08-11T20:01:04.594Z,17.25
2018-08-11T20:03:31.927Z,17.04
2018-08-11T20:05:59.349Z,16.99
2018-08-11T20:08:26.751Z,16.88
2018-08-11T20:10:54.228Z,16.80
2018-08-11T20:13:21.581Z,16.63
2018-08-11T20:15:49.002Z,16.54
2018-08-11T20:18:16.395Z,16.52
2018-08-11T20:20:43.727Z,16.47
2018-08-11T20:23:11.648Z,16.41
2018-08-11T20:25:39.284Z,16.23
2018-08-11T20:28:06.620Z,16.09
2018-08-11T20:30:34.731Z,16.02
2018-08-11T20:33:02.163Z,15.97
2018-08-11T20:35:29.583Z,15.93
2018-08-11T20:37:57.027Z,15.90
2018-08-11T20:40:24.471Z,15.89
2018-08-11T20:42:52.048Z,15.87
2018-08-11T20:45:19.517Z,15.91
2018-08-11T20:47:46.885Z,15.91
2018-08-11T20:50:14.265Z,15.80
2018-08-11T20:52:42.474Z,15.68
2018-08-11T20:55:10.635Z,15.73
2018-08-11T20:57:39.043Z,15.69
2018-08-11T21:00:09.565Z,15.62
2018-08-11T21:02:39.614Z,15.40
2018-08-11T21:05:10.338Z,15.13
2018-08-11T21:07:38.217Z,14.87
2018-08-11T21:10:07.048Z,14.68
2018-08-11T21:12:34.666Z,14.70
2018-08-11T21:15:01.990Z,14.79
2018-08-11T21:17:29.482Z,14.88
2018-08-11T21:19:56.752Z,14.84
2018-08-11T21:22:24.242Z,14.79
2018-08-11T21:24:52.240Z,14.72
2018-08-11T21:27:19.506Z,14.69
2018-08-11T21:29:46.752Z,14.64
2018-08-11T21:32:14.595Z,14.58
2018-08-11T21:34:41.836Z,14.48
2018-08-11T21:37:09.107Z,14.37
2018-08-11T21:39:36.346Z,14.27
2018-08-11T21:42:03.647Z,14.27
2018-08-11T21:44:30.875Z,14.25
2018-08-11T21:46:58.159Z,14.20
2018-08-11T21:49:25.773Z,14.26
2018-08-11T21:51:53.482Z,14.25
2018-08-11T21:54:20.751Z,14.25
2018-08-11T21:56:48.909Z,14.21
2018-08-11T21:59:16.187Z,14.15
2018-08-11T22:01:43.476Z,14.08
2018-08-11T22:04:10.719Z,13.96
2018-08-11T22:06:37.998Z,13.96
2018-08-11T22:09:08.794Z,13.99
2018-08-11T22:11:36.044Z,13.93
2018-08-11T22:14:03.449Z,13.89
2018-08-11T22:16:30.761Z,13.90
2018-08-11T22:18:58.007Z,13.81
2018-08-11T22:21:25.283Z,13.77
2018-08-11T22:23:53.864Z,13.77
2018-08-11T22:26:21.186Z,13.64
2018-08-11T22:28:48.575Z,13.55
2018-08-11T22:31:15.842Z,13.44
2018-08-11T22:33:43.145Z,13.43
2018-08-11T22:36:10.383Z,13.34
2018-08-11T22:38:37.642Z,13.32
2018-08-11T22:41:04.959Z,13.35
2018-08-11T22:43:32.216Z,13.35
2018-08-11T22:45:59.523Z,13.30
2018-08-11T22:48:26.751Z,13.23
2018-08-11T22:50:54.096Z,13.11
2018-08-11T22:53:21.355Z,13.00
2018-08-11T22:55:48.603Z,13.00
2018-08-11T22:58:15.846Z,12.94
2018-08-11T23:00:43.122Z,12.87
2018-08-11T23:03:10.387Z,12.81
2018-08-11T23:05:37.644Z,12.81
2018-08-11T23:08:04.993Z,12.77
2018-08-11T23:10:32.258Z,12.80
2018-08-11T23:12:59.594Z,12.80
2018-08-11T23:15:26.850Z,12.86
2018-08-11T23:17:54.146Z,12.89
2018-08-11T23:20:21.495Z,12.89
2018-08-11T23:22:48.819Z,12.89
2018-08-11T23:25:16.411Z,12.81
2018-08-11T23:27:43.810Z,12.70
2018-08-11T23:30:12.835Z,12.62
2018-08-11T23:32:40.968Z,12.59
2018-08-11T23:35:08.544Z,12.53
2018-08-11T23:37:35.883Z,12.54
2018-08-11T23:40:03.942Z,12.59
2018-08-11T23:42:31.234Z,12.59
2018-08-11T23:44:58.537Z,12.61
2018-08-11T23:47:25.860Z,12.60
2018-08-11T23:49:53.238Z,12.56
2018-08-11T23:52:20.584Z,12.61
2018-08-11T23:54:47.887Z,12.56
2018-08-11T23:57:15.165Z,12.52
2018-08-11T23:59:42.495Z,12.51
